createdAt,value
2024-01-05T00:01:40.773Z,347.83
2024-01-05T00:04:11.363Z,295.30
2024-01-05T00:06:42.075Z,147.97
2024-01-05T00:09:13.023Z,536.60
2024-01-05T00:11:43.001Z,518.80
2024-01-05T00:14:13.139Z,257.93
2024-01-05T00:16:45.701Z,999.90
2024-01-05T00:19:15.868Z,999.90
2024-01-05T00:21:45.955Z,999.90
2024-01-05T00:24:15.940Z,999.90
2024-01-05T00:26:46.211Z,445.40
2024-01-05T00:29:16.358Z,426.87
2024-01-05T00:31:48.927Z,692.23
2024-01-05T00:34:18.925Z,261.27
2024-01-05T00:36:48.971Z,216.83
2024-01-05T00:39:19.753Z,475.60
2024-01-05T00:41:50.597Z,103.43
2024-01-05T00:44:20.899Z,164.07
2024-01-05T00:46:53.662Z,213.83
2024-01-05T00:49:23.755Z,628.10
2024-01-05T00:51:54.004Z,419.17
2024-01-05T00:54:24.045Z,627.03
2024-01-05T00:56:54.021Z,595.70
2024-01-05T00:59:24.386Z,606.77
2024-01-05T01:01:57.077Z,566.57
2024-01-05T01:04:27.700Z,160.07
2024-01-05T01:06:57.840Z,644.40
2024-01-05T01:09:28.469Z,173.30
2024-01-05T01:11:58.605Z,45.47
2024-01-05T01:14:29.135Z,444.57
2024-01-05T01:17:01.755Z,488.10
2024-01-05T01:19:32.532Z,411.07
2024-01-05T01:22:02.635Z,382.77
2024-01-05T01:24:33.616Z,192.80
2024-01-05T01:27:03.960Z,431.17
2024-01-05T01:29:33.935Z,353.70
2024-01-05T01:32:07.685Z,389.93
2024-01-05T01:34:37.663Z,148.93
2024-01-05T01:37:08.363Z,87.20
2024-01-05T01:39:38.531Z,643.30
2024-01-05T01:42:10.085Z,421.07
2024-01-05T01:44:40.110Z,650.77
2024-01-05T01:47:10.158Z,41.67
2024-01-05T01:49:40.462Z,118.80
2024-01-05T01:52:11.499Z,95.60
2024-01-05T01:54:41.480Z,462.73
2024-01-05T01:57:12.331Z,50.33
2024-01-05T01:59:43.215Z,47.23
2024-01-05T02:02:16.438Z,55.17
2024-01-05T02:04:47.559Z,106.43
2024-01-05T02:07:18.225Z,50.77
2024-01-05T02:09:48.563Z,41.40
2024-01-05T02:12:18.717Z,419.97
2024-01-05T02:14:49.096Z,342.60
2024-01-05T02:17:35.652Z,702.07
2024-01-05T02:20:06.745Z,46.97
2024-01-05T02:22:38.688Z,999.90
2024-01-05T02:25:12.367Z,690.97
2024-01-05T02:27:43.291Z,52.30
2024-01-05T02:30:21.915Z,52.97
2024-01-05T02:32:52.056Z,999.90
2024-01-05T02:35:22.077Z,999.90
2024-01-05T02:37:52.406Z,999.90
2024-01-05T02:40:24.985Z,999.90
2024-01-05T02:42:55.506Z,999.90
2024-01-05T02:45:25.650Z,483.37
2024-01-05T02:47:56.085Z,187.73
2024-01-05T02:50:26.452Z,31.77
2024-01-05T02:52:56.819Z,43.37
2024-01-05T02:55:29.881Z,57.13
2024-01-05T02:58:00.038Z,25.93
2024-01-05T03:00:30.459Z,999.90
2024-01-05T03:03:00.681Z,999.90
2024-01-05T03:05:30.693Z,999.90
2024-01-05T03:08:01.586Z,999.90
2024-01-05T03:10:34.518Z,999.90
2024-01-05T03:13:04.492Z,676.53
2024-01-05T03:15:35.404Z,999.90
2024-01-05T03:18:05.567Z,999.90
2024-01-05T03:20:35.743Z,999.90
2024-01-05T03:23:05.841Z,999.90
2024-01-05T03:25:38.699Z,86.90
2024-01-05T03:28:09.331Z,82.27
2024-01-05T03:30:39.879Z,70.17
2024-01-05T03:33:10.739Z,63.83
2024-01-05T03:35:42.575Z,67.53
2024-01-05T03:38:12.558Z,66.10
2024-01-05T03:40:45.305Z,57.73
2024-01-05T03:43:15.611Z,64.90
2024-01-05T03:45:46.119Z,999.90
2024-01-05T03:48:17.289Z,999.90
2024-01-05T03:50:47.480Z,999.90
2024-01-05T03:53:17.786Z,999.90
2024-01-05T03:55:50.387Z,133.83
2024-01-05T03:58:20.538Z,45.80
2024-01-05T04:00:50.869Z,44.10
2024-01-05T04:03:21.191Z,41.83
2024-01-05T04:05:51.605Z,42.90
2024-01-05T04:08:22.056Z,257.60
2024-01-05T04:10:54.897Z,30.33
2024-01-05T04:13:24.844Z,127.47
2024-01-05T04:15:55.385Z,32.73
2024-01-05T04:18:26.315Z,372.77
2024-01-05T04:20:56.634Z,149.03
2024-01-05T04:23:26.607Z,66.30
2024-01-05T04:25:59.565Z,73.97
2024-01-05T04:28:29.626Z,95.47
2024-01-05T04:31:00.433Z,33.77
2024-01-05T04:33:30.899Z,31.50
2024-01-05T04:36:01.417Z,396.33
2024-01-05T04:38:32.742Z,222.83
2024-01-05T04:41:05.634Z,30.40
2024-01-05T04:43:36.215Z,87.37
2024-01-05T04:46:06.568Z,198.87
2024-01-05T04:48:38.254Z,86.90
2024-01-05T04:51:08.647Z,505.20
2024-01-05T04:53:39.068Z,36.47
2024-01-05T04:56:11.714Z,611.90
2024-01-05T04:58:42.298Z,242.73
2024-01-05T05:01:12.335Z,548.83
2024-01-05T05:03:43.185Z,409.37
2024-01-05T05:06:13.589Z,90.03
2024-01-05T05:08:43.772Z,19.67
2024-01-05T05:11:16.902Z,22.63
2024-01-05T05:13:46.837Z,21.40
2024-01-05T05:16:17.475Z,138.63
2024-01-05T05:18:48.869Z,90.67
2024-01-05T05:21:20.155Z,186.67
2024-01-05T05:23:50.093Z,156.47
2024-01-05T05:26:22.801Z,20.47
2024-01-05T05:28:52.972Z,22.07
2024-01-05T05:31:23.047Z,137.57
2024-01-05T05:33:53.045Z,22.00
2024-01-05T05:36:23.417Z,999.90
2024-01-05T05:38:53.939Z,999.90
2024-01-05T05:41:26.543Z,999.90
2024-01-05T05:43:56.533Z,999.90
2024-01-05T05:46:26.519Z,750.60
2024-01-05T05:48:56.800Z,39.67
2024-01-05T05:51:27.046Z,144.53
2024-01-05T05:53:57.431Z,999.90
2024-01-05T05:56:30.019Z,999.90
2024-01-05T05:59:00.350Z,32.97
2024-01-05T06:01:30.683Z,23.67
2024-01-05T06:04:01.107Z,115.97
2024-01-05T06:06:31.369Z,31.60
2024-01-05T06:09:01.745Z,27.40
2024-01-05T06:11:34.767Z,110.73
2024-01-05T06:14:05.953Z,93.97
2024-01-05T06:16:35.958Z,50.20
2024-01-05T06:19:06.121Z,22.97
2024-01-05T06:21:37.016Z,34.77
2024-01-05T06:24:07.611Z,25.53
2024-01-05T06:26:40.884Z,24.60
2024-01-05T06:29:10.856Z,21.10
2024-01-05T06:31:41.112Z,22.33
2024-01-05T06:34:11.649Z,21.90
2024-01-05T06:36:42.064Z,999.90
2024-01-05T06:39:12.786Z,999.90
2024-01-05T06:41:45.715Z,999.90
2024-01-05T06:44:16.004Z,999.90
2024-01-05T06:46:45.972Z,999.90
2024-01-05T06:49:16.196Z,999.90
2024-01-05T06:51:46.661Z,999.90
2024-01-05T06:54:17.046Z,999.90
2024-01-05T06:56:49.877Z,999.90
2024-01-05T06:59:20.030Z,999.90
2024-01-05T07:01:50.042Z,999.90
2024-01-05T07:04:20.020Z,999.90
2024-01-05T07:06:49.980Z,999.90
2024-01-05T07:09:20.054Z,999.90
2024-01-05T07:11:52.682Z,999.90
2024-01-05T07:14:22.712Z,999.90
2024-01-05T07:16:52.689Z,999.90
2024-01-05T07:19:23.296Z,999.90
2024-01-05T07:21:54.537Z,999.90
2024-01-05T07:24:24.677Z,999.90
2024-01-05T07:26:57.300Z,999.90
2024-01-05T07:29:27.467Z,999.90
2024-01-05T07:31:57.955Z,999.90
2024-01-05T07:34:28.259Z,999.90
2024-01-05T07:36:59.007Z,999.90
2024-01-05T07:39:29.199Z,999.90
2024-01-05T07:42:04.581Z,999.90
2024-01-05T07:44:34.630Z,999.90
2024-01-05T07:47:06.477Z,999.90
2024-01-05T07:49:36.641Z,999.90
2024-01-05T07:52:07.137Z,999.90
2024-01-05T07:54:37.252Z,999.90
2024-01-05T07:57:11.706Z,999.90
2024-01-05T07:59:41.984Z,999.90
2024-01-05T08:02:12.719Z,999.90
2024-01-05T08:04:44.257Z,999.90
2024-01-05T08:07:14.464Z,999.90
2024-01-05T08:09:46.178Z,999.90
2024-01-05T08:12:18.839Z,999.90
2024-01-05T08:14:52.520Z,999.90
2024-01-05T08:17:21.896Z,999.90
2024-01-05T08:19:52.092Z,999.90
2024-01-05T08:22:22.426Z,999.90
2024-01-05T08:24:52.628Z,999.90
2024-01-05T08:27:25.253Z,999.90
2024-01-05T08:29:55.387Z,999.90
2024-01-05T08:32:25.434Z,999.90
2024-01-05T08:34:55.474Z,999.90
2024-01-05T08:37:26.159Z,999.90
2024-01-05T08:39:56.238Z,999.90
2024-01-05T08:42:29.129Z,999.90
2024-01-05T08:44:59.257Z,999.90
2024-01-05T08:47:29.345Z,999.90
2024-01-05T08:49:56.844Z,999.90
2024-01-05T08:52:27.520Z,999.90
2024-01-05T08:54:57.571Z,999.90
2024-01-05T08:57:30.571Z,999.90
2024-01-05T09:00:00.653Z,999.90
2024-01-05T09:02:30.827Z,999.90
2024-01-05T09:05:02.099Z,999.90
2024-01-05T09:07:33.263Z,999.90
2024-01-05T09:10:04.447Z,999.90
2024-01-05T09:12:37.100Z,999.90
2024-01-05T09:15:08.113Z,400.90
2024-01-05T09:17:38.416Z,54.77
2024-01-05T09:20:10.855Z,60.93
2024-01-05T09:22:41.484Z,30.33
2024-01-05T09:25:12.208Z,716.53
2024-01-05T09:27:44.795Z,17.53
2024-01-05T09:30:15.638Z,96.63
2024-01-05T09:32:45.711Z,85.80
2024-01-05T09:35:16.359Z,17.23
2024-01-05T09:37:46.927Z,69.33
2024-01-05T09:40:17.108Z,49.60
2024-01-05T09:42:53.262Z,40.67
2024-01-05T09:45:25.543Z,103.70
2024-01-05T09:47:59.006Z,75.47
2024-01-05T09:50:29.370Z,4.07
2024-01-05T09:53:00.151Z,16.67
2024-01-05T09:55:30.542Z,16.10
2024-01-05T09:58:05.664Z,8.83
2024-01-05T10:00:36.820Z,110.17
2024-01-05T10:03:12.358Z,8.00
2024-01-05T10:05:42.503Z,8.70
2024-01-05T10:08:12.611Z,124.20
2024-01-05T10:10:50.544Z,11.63
2024-01-05T10:13:23.286Z,9.83
2024-01-05T10:15:58.110Z,496.20
2024-01-05T10:18:29.710Z,10.63
2024-01-05T10:21:00.842Z,4.10
2024-01-05T10:23:31.708Z,3.87
2024-01-05T10:26:02.685Z,3.00
2024-01-05T10:28:39.221Z,3.07
2024-01-05T10:31:17.228Z,5.47
2024-01-05T10:33:54.616Z,4.67
2024-01-05T10:36:24.757Z,3.20
2024-01-05T10:38:55.773Z,3.67
2024-01-05T10:41:25.948Z,3.60
2024-01-05T10:43:59.781Z,3.47
2024-01-05T10:46:30.993Z,3.43
2024-01-05T10:49:01.213Z,4.00
2024-01-05T10:51:33.055Z,25.33
2024-01-05T10:54:03.899Z,999.90
2024-01-05T10:56:34.305Z,285.27
2024-01-05T10:59:06.975Z,999.90
2024-01-05T11:01:37.211Z,283.27
2024-01-05T11:04:08.663Z,170.37
2024-01-05T11:06:41.365Z,3.37
2024-01-05T11:09:19.899Z,2.83
2024-01-05T11:12:07.271Z,2.10
2024-01-05T11:14:54.142Z,2.70
2024-01-05T11:17:58.710Z,1.67
2024-01-05T11:20:42.917Z,1.90
2024-01-05T11:23:14.038Z,2.00
2024-01-05T11:25:45.196Z,2.67
2024-01-05T11:28:37.111Z,2.33
2024-01-05T11:31:10.518Z,2.73
2024-01-05T11:33:50.833Z,1.47
2024-01-05T11:36:51.422Z,999.90
2024-01-05T11:39:42.598Z,999.90
2024-01-05T11:42:12.977Z,999.90
2024-01-05T11:44:43.614Z,999.90
2024-01-05T11:47:42.333Z,999.90
2024-01-05T11:50:28.750Z,999.90
2024-01-05T11:53:15.750Z,999.90
2024-01-05T11:55:53.304Z,22.37
2024-01-05T11:58:27.100Z,28.70
2024-01-05T12:00:59.118Z,311.83
2024-01-05T12:03:32.208Z,29.03
2024-01-05T12:06:04.769Z,32.10
2024-01-05T12:08:35.336Z,30.70
2024-01-05T12:21:10.201Z,999.90
2024-01-05T12:23:42.359Z,999.90
2024-01-05T12:26:13.493Z,999.90
2024-01-05T12:28:44.321Z,999.90
2024-01-05T12:31:14.871Z,999.90
2024-01-05T12:33:46.559Z,999.90
2024-01-05T12:36:27.934Z,999.90
2024-01-05T12:38:58.121Z,999.90
2024-01-05T12:41:28.375Z,999.90
2024-01-05T12:43:58.573Z,999.90
2024-01-05T12:46:28.690Z,999.90
2024-01-05T12:48:58.823Z,999.90
2024-01-05T12:51:31.759Z,999.90
2024-01-05T12:54:04.938Z,999.90
2024-01-05T12:56:35.413Z,999.90
2024-01-05T12:59:06.470Z,999.90
2024-01-05T13:01:36.836Z,999.90
2024-01-05T13:04:09.638Z,999.90
2024-01-05T13:06:44.515Z,999.90
2024-01-05T13:09:14.850Z,999.90
2024-01-05T13:11:53.665Z,999.90
2024-01-05T13:14:24.962Z,999.90
2024-01-05T13:16:54.967Z,999.90
2024-01-05T13:19:25.060Z,999.90
2024-01-05T13:21:57.710Z,999.90
2024-01-05T13:24:28.121Z,999.90
2024-01-05T13:26:59.660Z,27.67
2024-01-05T13:29:30.054Z,709.93
2024-01-05T13:32:00.347Z,6.57
2024-01-05T13:34:30.830Z,11.93
2024-01-05T13:37:06.754Z,13.93
2024-01-05T13:39:40.617Z,19.03
2024-01-05T13:42:11.161Z,19.37
2024-01-05T13:44:41.163Z,13.30
2024-01-05T13:47:11.521Z,12.70
2024-01-05T13:49:41.938Z,13.20
2024-01-05T13:52:17.789Z,11.83
2024-01-05T13:54:50.149Z,13.20
2024-01-05T13:57:20.562Z,12.77
2024-01-05T13:59:50.567Z,740.07
2024-01-05T14:02:21.769Z,172.27
2024-01-05T14:04:52.436Z,69.47
2024-01-05T14:07:25.040Z,21.27
2024-01-05T14:09:55.411Z,33.63
2024-01-05T14:12:25.892Z,19.30
2024-01-05T14:14:56.634Z,18.27
2024-01-05T14:17:26.624Z,37.67
2024-01-05T14:19:56.958Z,106.80
2024-01-05T14:22:29.580Z,2.30
2024-01-05T14:25:01.351Z,1.97
2024-01-05T14:27:31.365Z,2.20
2024-01-05T14:30:01.877Z,2.20
2024-01-05T14:32:31.925Z,999.90
2024-01-05T14:35:06.924Z,2.37
2024-01-05T14:37:41.102Z,2.17
2024-01-05T14:40:13.393Z,1.97
2024-01-05T14:42:43.438Z,999.90
2024-01-05T14:45:13.966Z,999.90
2024-01-05T14:47:44.286Z,999.90
2024-01-05T14:50:14.374Z,999.90
2024-01-05T14:52:55.481Z,999.90
2024-01-05T14:55:30.294Z,999.90
2024-01-05T14:58:02.403Z,999.90
2024-01-05T15:00:32.477Z,999.90
2024-01-05T15:03:05.897Z,999.90
2024-01-05T15:05:36.073Z,999.90
2024-01-05T15:08:09.421Z,999.90
2024-01-05T15:10:39.441Z,999.90
2024-01-05T15:13:09.681Z,999.90
2024-01-05T15:15:40.042Z,22.90
2024-01-05T15:18:10.316Z,999.90
2024-01-05T15:20:40.753Z,999.90
2024-01-05T15:23:13.861Z,999.90
2024-01-05T15:25:44.066Z,999.90
2024-01-05T15:28:14.716Z,999.90
2024-01-05T15:30:44.847Z,999.90
2024-01-05T15:33:15.051Z,999.90
2024-01-05T15:35:45.130Z,999.90
2024-01-05T15:38:17.717Z,999.90
2024-01-05T15:40:48.041Z,66.90
2024-01-05T15:43:19.173Z,999.90
2024-01-05T15:45:49.438Z,57.60
2024-01-05T15:48:20.124Z,37.40
2024-01-05T15:50:50.477Z,999.90
2024-01-05T15:53:24.969Z,999.90
2024-01-05T15:55:58.795Z,999.90
2024-01-05T15:58:29.851Z,999.90
2024-01-05T16:00:59.910Z,28.10
2024-01-05T16:03:30.093Z,999.90
2024-01-05T16:06:00.282Z,14.30
2024-01-05T16:08:32.954Z,2.40
2024-01-05T16:11:03.222Z,3.20
2024-01-05T16:13:33.475Z,2.93
2024-01-05T16:16:17.695Z,3.17
2024-01-05T16:18:49.830Z,2.97
2024-01-05T16:21:24.087Z,15.53
2024-01-05T16:23:59.611Z,2.80
2024-01-05T16:26:30.859Z,2.57
2024-01-05T16:29:00.827Z,2.30
2024-01-05T16:31:31.646Z,2.10
2024-01-05T16:34:01.785Z,2.00
2024-01-05T16:36:32.228Z,1.87
2024-01-05T16:39:05.216Z,3.50
2024-01-05T16:41:35.281Z,1.70
2024-01-05T16:44:05.878Z,1.80
2024-01-05T16:46:36.082Z,1.67
2024-01-05T16:49:06.216Z,1.73
2024-01-05T16:51:36.376Z,1.80
2024-01-05T16:54:09.421Z,1.43
2024-01-05T16:56:46.998Z,1.60
2024-01-05T16:59:20.211Z,2.00
2024-01-05T17:01:50.290Z,1.90
2024-01-05T17:04:24.147Z,2.13
2024-01-05T17:06:54.395Z,1.90
2024-01-05T17:09:28.239Z,2.20
2024-01-05T17:11:58.568Z,1.87
2024-01-05T17:14:29.015Z,1.67
2024-01-05T17:16:59.422Z,1.40
2024-01-05T17:19:29.884Z,1.40
2024-01-05T17:22:00.301Z,2.33
2024-01-05T17:24:32.916Z,1.77
2024-01-05T17:27:03.242Z,1.90
2024-01-05T17:29:36.495Z,2.10
2024-01-05T17:32:07.776Z,1.80
2024-01-05T17:34:37.849Z,1.70
2024-01-05T17:37:09.012Z,1.80
2024-01-05T17:39:42.157Z,1.77
2024-01-05T17:42:13.487Z,2.10
2024-01-05T17:44:43.893Z,2.00
2024-01-05T17:47:16.629Z,1.90
2024-01-05T17:49:51.003Z,1.80
2024-01-05T17:52:21.845Z,1.80
2024-01-05T17:54:54.804Z,2.37
2024-01-05T17:57:26.046Z,2.10
2024-01-05T17:59:56.680Z,2.23
2024-01-05T18:02:28.307Z,1.90
2024-01-05T18:04:58.598Z,1.83
2024-01-05T18:07:28.813Z,2.30
2024-01-05T18:10:01.628Z,2.20
2024-01-05T18:12:31.615Z,1.93
2024-01-05T18:15:02.701Z,2.10
2024-01-05T18:17:32.959Z,2.13
2024-01-05T18:20:03.206Z,1.87
2024-01-05T18:22:33.494Z,1.90
2024-01-05T18:25:06.270Z,1.77
2024-01-05T18:27:36.455Z,1.80
2024-01-05T18:30:07.247Z,2.10
2024-01-05T18:32:37.491Z,1.70
2024-01-05T18:35:08.577Z,1.93
2024-01-05T18:37:38.781Z,1.47
2024-01-05T18:40:12.232Z,1.70
2024-01-05T18:42:42.442Z,1.70
2024-01-05T18:45:13.216Z,1.50
2024-01-05T18:47:43.296Z,5.00
2024-01-05T18:50:13.534Z,1.87
2024-01-05T18:52:43.515Z,2.13
2024-01-05T18:55:17.248Z,1.60
2024-01-05T18:57:47.403Z,1.83
2024-01-05T19:00:18.942Z,1.67
2024-01-05T19:02:48.997Z,1.90
2024-01-05T19:05:19.197Z,2.00
2024-01-05T19:07:49.230Z,2.37
2024-01-05T19:10:22.418Z,1.60
2024-01-05T19:12:52.462Z,2.20
2024-01-05T19:15:22.470Z,2.30
2024-01-05T19:17:52.518Z,15.77
2024-01-05T19:20:23.384Z,2.30
2024-01-05T19:22:53.440Z,1.97
2024-01-05T19:25:26.346Z,2.00
2024-01-05T19:27:57.010Z,1.60
2024-01-05T19:30:27.103Z,49.00
2024-01-05T19:32:58.074Z,2.30
2024-01-05T19:35:28.057Z,61.97
2024-01-05T19:38:00.590Z,4.70
2024-01-05T19:40:33.287Z,6.80
2024-01-05T19:43:03.280Z,477.07
2024-01-05T19:45:33.896Z,106.97
2024-01-05T19:48:04.928Z,20.57
2024-01-05T19:50:35.531Z,10.43
2024-01-05T19:53:06.118Z,7.50
2024-01-05T19:55:38.856Z,8.30
2024-01-05T19:58:08.815Z,6.70
2024-01-05T20:00:39.214Z,4.47
2024-01-05T20:03:09.429Z,4.60
2024-01-05T20:05:40.658Z,14.87
2024-01-05T20:08:10.935Z,5.03
2024-01-05T20:10:43.925Z,4.43
2024-01-05T20:13:13.977Z,4.63
2024-01-05T20:15:44.553Z,4.13
2024-01-05T20:18:16.111Z,4.03
2024-01-05T20:20:46.408Z,22.50
2024-01-05T20:23:16.886Z,17.60
2024-01-05T20:25:49.898Z,111.53
2024-01-05T20:28:20.514Z,36.97
2024-01-05T20:30:50.696Z,32.17
2024-01-05T20:33:22.380Z,189.80
2024-01-05T20:35:52.411Z,20.10
2024-01-05T20:38:22.531Z,18.27
2024-01-05T20:40:55.232Z,15.80
2024-01-05T20:43:25.496Z,10.40
2024-01-05T20:45:55.482Z,7.97
2024-01-05T20:48:26.733Z,8.77
2024-01-05T20:50:56.940Z,7.50
2024-01-05T20:53:27.242Z,51.03
2024-01-05T20:55:59.997Z,7.50
2024-01-05T20:58:30.184Z,25.07
2024-01-05T21:01:02.097Z,64.67
2024-01-05T21:03:33.243Z,481.00
2024-01-05T21:06:05.202Z,1.93
2024-01-05T21:08:35.181Z,1.60
2024-01-05T21:11:08.260Z,2.07
2024-01-05T21:13:38.242Z,1.90
2024-01-05T21:16:09.197Z,2.40
2024-01-05T21:18:39.238Z,2.00
2024-01-05T21:21:09.653Z,1.50
2024-01-05T21:23:39.587Z,1.60
2024-01-05T21:26:12.323Z,1.80
2024-01-05T21:28:42.877Z,1.53
2024-01-05T21:31:13.478Z,1.60
2024-01-05T21:33:46.302Z,1.67
2024-01-05T21:36:16.564Z,2.00
2024-01-05T21:38:46.886Z,1.80
2024-01-05T21:41:20.281Z,2.93
2024-01-05T21:43:50.721Z,4.90
2024-01-05T21:46:21.095Z,40.20
2024-01-05T21:48:51.555Z,77.20
2024-01-05T21:51:21.635Z,48.13
2024-01-05T21:53:51.878Z,4.07
2024-01-05T21:56:24.355Z,2.43
2024-01-05T21:58:54.832Z,2.13
2024-01-05T22:01:25.256Z,2.10
2024-01-05T22:03:55.575Z,1.60
2024-01-05T22:06:26.721Z,1.70
2024-01-05T22:08:56.756Z,1.63
2024-01-05T22:11:29.913Z,2.70
2024-01-05T22:13:59.905Z,1.50
2024-01-05T22:16:30.662Z,1.43
2024-01-05T22:19:00.733Z,1.40
2024-01-05T22:21:33.719Z,1.50
2024-01-05T22:24:03.788Z,1.70
2024-01-05T22:26:37.738Z,1.70
2024-01-05T22:29:09.421Z,1.80
2024-01-05T22:31:39.487Z,1.80
2024-01-05T22:34:09.772Z,1.57
2024-01-05T22:36:39.887Z,1.60
2024-01-05T22:39:12.929Z,17.13
2024-01-05T22:41:45.607Z,15.47
2024-01-05T22:44:16.333Z,14.70
2024-01-05T22:46:46.329Z,15.93
2024-01-05T22:49:16.452Z,20.03
2024-01-05T22:51:46.553Z,19.23
2024-01-05T22:54:17.294Z,17.37
2024-01-05T22:56:52.641Z,23.23
2024-01-05T22:59:22.820Z,272.60
2024-01-05T23:01:56.476Z,56.63
2024-01-05T23:04:27.962Z,1.90
2024-01-05T23:06:59.963Z,2.27
2024-01-05T23:09:30.040Z,2.20
2024-01-05T23:12:02.860Z,1.77
2024-01-05T23:14:32.806Z,1.93
2024-01-05T23:17:03.073Z,2.37
2024-01-05T23:19:33.165Z,2.00
2024-01-05T23:22:03.209Z,1.70
2024-01-05T23:24:33.146Z,1.80
2024-01-05T23:27:06.301Z,1.77
2024-01-05T23:29:38.018Z,1.90
2024-01-05T23:32:08.651Z,1.77
2024-01-05T23:34:38.718Z,2.03
2024-01-05T23:37:08.875Z,1.97
2024-01-05T23:39:38.944Z,1.70
2024-01-05T23:42:11.794Z,1.80
2024-01-05T23:44:41.814Z,39.17
2024-01-05T23:47:11.973Z,35.20
2024-01-05T23:49:42.581Z,32.23
2024-01-05T23:52:12.806Z,10.97
2024-01-05T23:54:44.167Z,12.20
2024-01-05T23:57:16.930Z,133.10
2024-01-05T23:59:47.267Z,68.53
